Airfield :
LOGIN :

Register | Disclaimer

   EN    FR    IT 

 










Legend :    VFR   Marginal VFR   IFR   Intensive IFR   Very Intensive IFR
Visi :
Ceiling :
>= 8 km
>= 3000ft
5 to 8 km
1000 to 3000 ft
1500m to 5 km
500 to 1000 ft
800 to 1500m
200 to 500 ft
< 800m
< 200 ft
Symbols :   Thunderstorms  Fog  Heavy snow  Heavy precipitations  Wind > 20 kt
SIGMETs :     Misc.  Thunderstorms  Icing  Turbulence  Mountain Waves  Volcanic Ashes






- Airport Elevation : 622 ft
- IATA code : BRS


EGGD - Bristol Int.

CURRENT METAR :
  • 241420Z AUTO VRB03KT 9999 OVC011 06/04 Q1022

EXPIRED METARs :
  • 241350Z AUTO VRB03KT 9999 SCT007 OVC011 06/04 Q1022
  • 241320Z AUTO VRB02KT 9999 OVC007 06/05 Q1022
  • 241250Z AUTO VRB03KT 9999 OVC009 06/04 Q1023
  • 241220Z AUTO VRB03KT 9999 OVC010 06/05 Q1023
  • 241150Z AUTO 16004KT 120V190 9999 OVC010 06/04 Q1023

TAF TAF EGGD
Valid from the 24 at 12:00 until the 25 at 12:00 UTC


241104Z 2412/2512 VRB04KT 9999 SCT006 BKN015
TEMPO 2412/2512 7000 BKN004
PROB30
TEMPO 2421/2512 1300 BR OVC001
ATIS : +44 1275 473 666



MET'MAP, your aeronautical weather chart ! - Copyright ORBIFLY December 2007 - Disclaimer

ORBIFLY MET'MAP TEAM :

Programming & Development : Alexandra Zaïnal
Concept & original design : Baudouin d'Aumeries
Assistance for programming : Marc-Olivier Méhu
Technical & hardware support : Manuel Goepfert

Contact : metmap@orbifly.com




SOURCES & CREDITS :

   NOAA